Time;durP1;ratioP1;P1;durP2;ratioP2;P2;SDS_P1;SDS_P2;PMS_P1;PMS_P2;Temp;Humidity;BMP_temperature;BMP_pressure;BME280_temperature;BME280_humidity;BME280_pressure;Samples;Min_cycle;Max_cycle;Signal;HPM_P1;HPM_P2
2021/06/05 00:00:18;;;;;;;2.97;2.60;;;;;;;17.88;81.68;101504.09;5073961;28;20484;-73
2021/06/05 00:02:44;;;;;;;3.40;2.50;;;;;;;17.87;81.79;101496.19;5073940;28;20457;-73
2021/06/05 00:05:10;;;;;;;4.20;2.93;;;;;;;17.79;81.90;101499.75;5073871;28;20453;-73
2021/06/05 00:07:38;;;;;;;4.73;3.27;;;;;;;17.79;81.73;101497.81;5073423;28;21032;-73
2021/06/05 00:10:06;;;;;;;3.80;3.40;;;;;;;17.81;82.28;101505.72;5073829;28;20437;-73
2021/06/05 00:12:32;;;;;;;4.50;3.07;;;;;;;17.80;82.00;101496.69;5073419;28;20973;-73
2021/06/05 00:14:58;;;;;;;4.33;3.03;;;;;;;17.81;81.63;101509.25;5073393;28;20954;-73
2021/06/05 00:17:24;;;;;;;2.90;2.33;;;;;;;17.79;82.05;101497.00;5073664;28;20457;-73
2021/06/05 00:19:50;;;;;;;3.90;3.23;;;;;;;17.74;82.22;101500.72;5073286;28;20989;-73
2021/06/05 00:22:16;;;;;;;4.20;2.73;;;;;;;17.73;82.37;101492.81;5073640;28;20442;-73
2021/06/05 00:24:44;;;;;;;4.00;2.80;;;;;;;17.71;82.80;101493.16;5073634;28;20499;-72
2021/06/05 00:27:10;;;;;;;4.80;3.40;;;;;;;17.66;82.38;101487.81;5073528;28;20490;-73
2021/06/05 00:29:36;;;;;;;5.30;2.70;;;;;;;17.67;82.51;101492.19;5073565;28;20441;-73
2021/06/05 00:32:03;;;;;;;4.33;3.63;;;;;;;17.64;82.81;101495.56;5073469;28;20429;-73
2021/06/05 00:34:29;;;;;;;3.00;2.17;;;;;;;17.60;82.89;101500.91;5073525;28;20495;-73
2021/06/05 00:36:55;;;;;;;4.13;3.30;;;;;;;17.56;82.96;101494.47;5073294;28;20449;-73
2021/06/05 00:39:21;;;;;;;3.07;2.33;;;;;;;17.53;82.14;101497.03;5073380;28;20445;-73
2021/06/05 00:41:49;;;;;;;4.13;2.90;;;;;;;17.49;80.49;101505.13;5073397;28;20484;-73
2021/06/05 00:44:15;;;;;;;3.60;2.60;;;;;;;17.42;79.89;101493.84;5079941;28;20797;-73
2021/06/05 00:46:41;;;;;;;3.10;2.47;;;;;;;17.35;80.55;101497.09;5073379;28;20441;-73
2021/06/05 00:49:09;;;;;;;5.90;3.30;;;;;;;17.31;79.88;101504.34;5072959;28;20476;-73
2021/06/05 00:51:39;;;;;;;2.33;2.13;;;;;;;17.28;80.70;101509.66;5072975;28;20437;-73
2021/06/05 00:54:08;;;;;;;5.27;2.80;;;;;;;17.29;81.52;101498.38;5073271;28;20425;-73
2021/06/05 00:56:34;;;;;;;4.03;2.80;;;;;;;17.25;82.26;101500.16;5072610;28;20441;-73
2021/06/05 00:59:01;;;;;;;3.90;2.30;;;;;;;17.27;82.64;101495.16;5073124;28;20464;-73
2021/06/05 01:01:30;;;;;;;6.20;3.30;;;;;;;17.29;82.96;101501.09;5073077;28;20485;-73
2021/06/05 01:03:56;;;;;;;5.83;2.87;;;;;;;17.27;83.20;101497.91;5075189;28;20437;-73
2021/06/05 01:06:26;;;;;;;4.20;2.83;;;;;;;17.25;83.28;101491.13;5079894;28;20437;-72
2021/06/05 01:08:59;;;;;;;5.30;2.53;;;;;;;17.23;83.36;101493.41;5079661;28;20468;-73
2021/06/05 01:11:33;;;;;;;3.73;2.67;;;;;;;17.22;83.29;101502.72;5079804;28;20487;-73
2021/06/05 01:14:07;;;;;;;3.87;2.90;;;;;;;17.18;84.02;101497.13;5079748;28;20429;-73
2021/06/05 01:16:34;;;;;;;4.40;2.90;;;;;;;17.15;84.16;101503.22;5079765;28;20421;-73
2021/06/05 01:19:07;;;;;;;5.80;3.10;;;;;;;17.11;84.10;101494.84;5079640;28;20457;-73
2021/06/05 01:22:00;;;;;;;2.27;2.00;;;;;;;17.10;84.36;101490.50;5079644;28;20461;-73
2021/06/05 01:24:43;;;;;;;3.60;2.33;;;;;;;17.08;84.65;101492.75;5077574;28;20498;-73
2021/06/05 01:27:15;;;;;;;2.20;2.00;;;;;;;17.04;84.81;101494.50;5079571;28;20436;-73
2021/06/05 01:29:44;;;;;;;3.13;2.57;;;;;;;17.00;84.88;101490.84;5079682;28;20432;-73
2021/06/05 01:32:14;;;;;;;2.97;2.67;;;;;;;16.94;85.12;101503.06;5085902;28;20507;-72
2021/06/05 01:34:43;;;;;;;6.13;3.20;;;;;;;16.94;84.80;101494.03;5079592;28;20440;-73
2021/06/05 01:37:12;;;;;;;3.50;2.33;;;;;;;16.87;85.42;101495.34;5079478;28;20870;-73
2021/06/05 01:39:41;;;;;;;4.43;2.87;;;;;;;16.79;85.40;101479.72;5079579;28;20519;-73
2021/06/05 01:42:10;;;;;;;8.03;2.70;;;;;;;16.71;84.99;101488.69;5079454;28;20456;-73
2021/06/05 01:44:40;;;;;;;4.47;2.50;;;;;;;16.62;84.24;101485.94;5079189;28;20970;-73
2021/06/05 01:47:06;;;;;;;2.87;2.27;;;;;;;16.49;84.40;101486.88;5079154;28;20498;-72
2021/06/05 01:49:33;;;;;;;5.03;2.90;;;;;;;16.42;84.04;101488.47;5079154;28;20811;-72
2021/06/05 01:52:04;;;;;;;3.80;3.27;;;;;;;16.31;82.44;101486.03;5079404;28;20444;-72
2021/06/05 01:54:35;;;;;;;4.17;2.97;;;;;;;16.22;82.99;101487.94;5079413;28;20425;-72
2021/06/05 01:57:05;;;;;;;7.60;2.90;;;;;;;16.16;84.75;101483.75;5079000;28;20461;-71
2021/06/05 01:59:31;;;;;;;3.20;2.90;;;;;;;16.15;86.62;101482.09;5079243;28;20439;-72
2021/06/05 02:01:59;;;;;;;6.40;3.37;;;;;;;16.15;87.23;101484.84;5079241;28;20445;-72
2021/06/05 02:04:25;;;;;;;5.30;4.00;;;;;;;16.06;87.89;101478.53;5079317;28;20437;-72
2021/06/05 02:06:53;;;;;;;3.10;2.13;;;;;;;16.05;88.25;101472.28;5079238;28;20445;-70
2021/06/05 02:09:23;;;;;;;2.50;2.30;;;;;;;16.11;88.17;101465.56;5079126;28;20457;-72
2021/06/05 02:11:53;;;;;;;3.50;2.57;;;;;;;16.10;88.46;101458.47;5079257;28;20452;-72
2021/06/05 02:14:25;;;;;;;3.50;2.77;;;;;;;16.14;88.92;101458.63;5079204;28;20443;-72
2021/06/05 02:16:53;;;;;;;3.87;3.37;;;;;;;16.10;88.68;101453.00;5075247;28;20429;-72
2021/06/05 02:19:25;;;;;;;4.37;3.40;;;;;;;16.15;88.60;101460.25;5075858;28;20490;-72
2021/06/05 02:21:52;;;;;;;4.10;2.10;;;;;;;16.13;89.19;101462.50;5075973;28;20422;-72
2021/06/05 02:24:21;;;;;;;5.10;2.67;;;;;;;16.12;89.09;101460.91;5075864;28;20442;-72
2021/06/05 02:26:48;;;;;;;2.97;2.67;;;;;;;16.12;88.77;101466.38;5075864;28;20445;-74
2021/06/05 02:29:17;;;;;;;3.27;2.30;;;;;;;16.09;89.26;101464.25;5075674;28;20468;-71
2021/06/05 02:31:44;;;;;;;4.40;3.17;;;;;;;15.95;89.69;101466.31;5075678;28;20495;-69
2021/06/05 02:34:14;;;;;;;3.00;2.50;;;;;;;15.89;90.29;101466.44;5075364;28;20863;-70
2021/06/05 02:36:45;;;;;;;3.50;2.60;;;;;;;15.92;90.02;101464.19;5075656;28;20426;-73
2021/06/05 02:39:12;;;;;;;4.63;2.50;;;;;;;15.90;89.85;101461.78;5075576;28;20520;-71
2021/06/05 02:41:41;;;;;;;3.20;2.23;;;;;;;15.88;89.78;101455.81;5075704;28;20493;-71
2021/06/05 02:44:08;;;;;;;4.63;2.60;;;;;;;15.84;90.19;101452.91;5075447;28;20438;-72
2021/06/05 02:46:37;;;;;;;4.97;3.23;;;;;;;15.86;90.32;101458.06;5075466;28;20437;-72
2021/06/05 02:49:06;;;;;;;4.70;2.80;;;;;;;15.90;90.09;101456.31;5075048;28;20478;-72
2021/06/05 02:51:36;;;;;;;5.17;3.70;;;;;;;15.80;90.38;101454.66;5075033;28;20438;-72
2021/06/05 02:54:04;;;;;;;4.27;3.00;;;;;;;15.78;88.38;101456.91;5075246;28;20441;-72
2021/06/05 02:56:30;;;;;;;4.27;2.83;;;;;;;15.72;86.97;101454.63;5075222;28;20441;-72
2021/06/05 02:58:57;;;;;;;7.27;3.23;;;;;;;15.67;85.67;101449.28;5075172;28;20484;-72
2021/06/05 03:01:23;;;;;;;4.33;2.60;;;;;;;15.66;85.99;101450.41;5075143;28;20485;-72
2021/06/05 03:03:49;;;;;;;4.03;2.20;;;;;;;15.69;86.31;101452.53;5074821;28;20437;-72
2021/06/05 03:06:15;;;;;;;3.13;1.63;;;;;;;15.68;87.63;101451.72;5074787;28;20939;-72
2021/06/05 03:08:43;;;;;;;3.60;3.27;;;;;;;15.72;88.64;101451.91;5074950;28;20468;-72
2021/06/05 03:11:13;;;;;;;3.87;3.13;;;;;;;15.78;89.02;101459.63;5074631;28;20448;-72
2021/06/05 03:13:40;;;;;;;4.17;3.10;;;;;;;15.83;89.49;101455.94;5074939;28;20436;-73
2021/06/05 03:16:06;;;;;;;5.37;3.30;;;;;;;15.89;89.70;101458.25;5074868;28;20445;-72
2021/06/05 03:18:33;;;;;;;5.83;3.10;;;;;;;15.94;89.45;101453.72;5074801;28;20461;-71
2021/06/05 03:20:59;;;;;;;2.60;2.40;;;;;;;15.98;89.46;101449.25;5080878;28;20469;-72
2021/06/05 03:23:29;;;;;;;3.50;3.00;;;;;;;16.02;89.37;101450.22;5074695;28;20450;-72
2021/06/05 03:25:56;;;;;;;3.63;3.00;;;;;;;16.02;89.02;101448.31;5074706;28;20468;-72
2021/06/05 03:28:27;;;;;;;10.40;3.20;;;;;;;16.06;89.11;101452.00;5074056;28;21013;-72
2021/06/05 03:30:53;;;;;;;2.50;2.30;;;;;;;16.11;88.97;101449.16;5074605;28;20425;-72
2021/06/05 03:33:21;;;;;;;3.77;2.73;;;;;;;16.17;88.61;101447.09;5074316;28;20430;-72
2021/06/05 03:35:48;;;;;;;4.13;3.20;;;;;;;16.10;88.57;101444.00;5074526;28;20859;-72
2021/06/05 03:38:15;;;;;;;4.37;2.23;;;;;;;16.16;86.71;101445.47;5074375;28;20522;-73
2021/06/05 03:40:42;;;;;;;4.20;2.70;;;;;;;16.19;86.97;101433.88;5074306;28;20482;-73
2021/06/05 03:43:09;;;;;;;3.20;2.33;;;;;;;16.22;86.37;101438.72;5074295;28;20464;-72
2021/06/05 03:45:36;;;;;;;4.03;3.47;;;;;;;16.24;87.19;101438.41;5073929;28;20813;-73
2021/06/05 03:48:03;;;;;;;4.10;2.20;;;;;;;16.28;87.82;101442.91;5073908;28;20484;-72
2021/06/05 03:50:32;;;;;;;2.60;2.40;;;;;;;16.30;88.14;101440.69;5073892;28;20440;-72
2021/06/05 03:52:58;;;;;;;3.23;2.67;;;;;;;16.36;88.22;101439.41;5073773;28;20814;-72
2021/06/05 03:55:25;;;;;;;5.87;3.00;;;;;;;16.39;88.47;101436.03;5074011;28;20448;-72
2021/06/05 03:57:52;;;;;;;5.03;3.40;;;;;;;16.44;88.25;101439.75;5073935;28;20473;-73
2021/06/05 04:00:23;;;;;;;5.67;4.00;;;;;;;16.48;87.92;101433.31;5073892;28;20503;-72
2021/06/05 04:02:51;;;;;;;3.97;2.67;;;;;;;16.59;87.68;101444.72;5073889;28;20425;-73
2021/06/05 04:05:18;;;;;;;2.97;2.17;;;;;;;16.66;87.24;101442.34;5074184;28;20463;-70
2021/06/05 04:07:45;;;;;;;5.33;2.97;;;;;;;16.75;86.76;101454.13;5073976;28;20461;-72
2021/06/05 04:10:12;;;;;;;6.00;3.00;;;;;;;16.82;86.48;101448.97;5073814;28;20440;-72
2021/06/05 04:12:39;;;;;;;4.77;3.00;;;;;;;16.87;86.62;101448.81;5073853;28;20441;-72
2021/06/05 04:15:07;;;;;;;3.80;2.90;;;;;;;16.95;85.81;101440.91;5073740;28;20470;-72
2021/06/05 04:17:33;;;;;;;4.17;3.03;;;;;;;17.01;85.60;101443.16;5073667;28;20465;-72
2021/06/05 04:20:01;;;;;;;3.30;2.77;;;;;;;17.07;85.05;101446.53;5073252;28;20553;-72
2021/06/05 04:22:27;;;;;;;3.27;2.20;;;;;;;17.13;84.89;101453.44;5073699;28;20437;-72
2021/06/05 04:24:53;;;;;;;3.53;2.60;;;;;;;17.19;84.41;101452.16;5073560;28;20442;-72
2021/06/05 04:27:19;;;;;;;3.60;2.60;;;;;;;17.29;84.40;101449.09;5073517;28;20527;-73
2021/06/05 04:29:45;;;;;;;3.90;2.63;;;;;;;17.36;84.38;101448.59;5073538;28;20444;-72
2021/06/05 04:32:11;;;;;;;4.13;2.57;;;;;;;17.38;83.41;101447.13;5073501;28;20475;-73
2021/06/05 04:34:37;;;;;;;4.20;2.83;;;;;;;17.42;81.79;101446.47;5073546;28;20448;-72
2021/06/05 04:37:05;;;;;;;3.97;2.90;;;;;;;17.43;80.91;101450.81;5073391;28;20437;-72
2021/06/05 04:39:31;;;;;;;2.93;2.23;;;;;;;17.47;80.81;101455.31;5072871;28;20437;-73
2021/06/05 04:41:57;;;;;;;2.87;2.57;;;;;;;17.54;81.47;101468.53;5073045;28;21012;-73
2021/06/05 04:44:23;;;;;;;2.90;2.30;;;;;;;17.60;81.89;101459.00;5073335;28;20437;-73
2021/06/05 04:46:49;;;;;;;4.87;3.13;;;;;;;17.65;82.01;101456.88;5073371;28;20448;-73
2021/06/05 04:49:15;;;;;;;4.50;2.67;;;;;;;17.73;81.73;101457.19;5081893;22;20629;-64
2021/06/05 04:51:41;;;;;;;3.03;2.50;;;;;;;17.81;81.53;101468.16;5053103;28;20461;-65
2021/06/05 04:54:09;;;;;;;6.40;3.50;;;;;;;17.88;81.38;101465.72;5053181;28;20442;-65
2021/06/05 04:56:40;;;;;;;4.03;2.90;;;;;;;17.96;81.32;101464.06;5053179;28;20446;-64
2021/06/05 04:59:07;;;;;;;4.30;2.90;;;;;;;18.04;80.90;101462.41;5053113;28;20466;-65
2021/06/05 05:01:34;;;;;;;3.60;2.63;;;;;;;18.12;80.84;101464.31;5052996;28;20493;-65
2021/06/05 05:04:01;;;;;;;2.83;2.53;;;;;;;18.18;80.61;101462.19;5052990;28;20445;-65
2021/06/05 05:06:27;;;;;;;3.07;2.37;;;;;;;18.22;80.37;101463.13;5053012;28;20442;-65
2021/06/05 05:08:53;;;;;;;5.00;3.10;;;;;;;18.27;79.88;101460.97;5053076;28;20474;-65
2021/06/05 05:11:21;;;;;;;4.10;2.50;;;;;;;18.36;79.44;101463.69;5052627;28;20950;-65
2021/06/05 05:13:48;;;;;;;3.83;2.77;;;;;;;18.43;78.87;101458.47;5052686;28;20446;-64
2021/06/05 05:16:15;;;;;;;4.30;3.17;;;;;;;18.51;78.38;101459.56;5052926;28;20500;-65
2021/06/05 05:18:44;;;;;;;4.13;2.53;;;;;;;18.59;78.28;101450.44;5052901;28;20473;-65
2021/06/05 05:21:11;;;;;;;2.90;2.07;;;;;;;18.65;78.69;101449.94;5052902;28;20482;-64
2021/06/05 05:23:37;;;;;;;3.73;2.33;;;;;;;18.73;78.04;101453.78;5052638;28;20496;-65
2021/06/05 05:26:05;;;;;;;6.90;2.87;;;;;;;18.81;78.19;101452.88;5052817;28;20460;-64
2021/06/05 05:28:33;;;;;;;3.73;3.03;;;;;;;18.86;77.92;101447.22;5052797;28;20466;-63
2021/06/05 05:31:02;;;;;;;3.33;2.70;;;;;;;18.93;77.30;101448.59;5052732;28;20450;-63
2021/06/05 05:33:29;;;;;;;5.23;2.43;;;;;;;19.01;77.28;101455.97;5052811;28;20560;-63
2021/06/05 05:35:57;;;;;;;6.27;3.30;;;;;;;19.09;76.87;101457.84;5052431;28;20966;-64
2021/06/05 05:38:24;;;;;;;9.90;2.83;;;;;;;19.17;76.42;101465.19;5052140;28;20482;-64
2021/06/05 05:40:52;;;;;;;3.00;2.60;;;;;;;19.27;75.62;101463.97;5052705;28;20486;-63
2021/06/05 05:43:18;;;;;;;3.30;2.27;;;;;;;19.35;75.70;101465.84;5052986;28;20453;-63
2021/06/05 05:45:45;;;;;;;3.73;2.60;;;;;;;19.44;75.23;101468.50;5052620;28;20500;-63
2021/06/05 05:48:13;;;;;;;3.73;2.60;;;;;;;19.53;74.76;101470.00;5052389;28;20478;-64
2021/06/05 05:50:42;;;;;;;2.53;2.30;;;;;;;19.57;72.92;101481.13;5052815;28;20951;-64
2021/06/05 05:53:08;;;;;;;2.57;1.83;;;;;;;19.62;72.59;101475.44;5056352;28;20442;-63
2021/06/05 05:55:35;;;;;;;3.53;2.53;;;;;;;19.66;72.65;101473.63;5056392;28;20442;-64
2021/06/05 05:58:04;;;;;;;1.90;1.73;;;;;;;19.73;73.24;101482.09;5056279;28;20458;-64
2021/06/05 06:00:31;;;;;;;2.93;2.20;;;;;;;19.82;73.05;101479.22;5056175;28;20493;-64
2021/06/05 06:02:59;;;;;;;5.43;2.73;;;;;;;19.90;72.98;101467.31;5056274;28;20508;-64
2021/06/05 06:05:25;;;;;;;3.40;2.57;;;;;;;19.97;72.19;101478.56;5056258;28;20457;-64
2021/06/05 06:07:51;;;;;;;2.70;2.10;;;;;;;20.08;72.14;101484.41;5056076;28;20465;-64
2021/06/05 06:10:18;;;;;;;3.10;1.90;;;;;;;20.15;71.29;101481.91;5056099;28;20441;-64
2021/06/05 06:12:44;;;;;;;7.97;2.40;;;;;;;20.25;70.02;101480.63;5055794;28;20914;-64
2021/06/05 06:15:13;;;;;;;3.10;2.40;;;;;;;20.35;69.94;101483.72;5055857;28;20505;-64
2021/06/05 06:17:39;;;;;;;2.33;1.93;;;;;;;20.47;68.42;101482.09;5055618;28;20955;-64
2021/06/05 06:20:09;;;;;;;2.30;2.10;;;;;;;20.56;67.43;101480.84;5055957;28;20442;-64
2021/06/05 06:22:36;;;;;;;3.50;2.23;;;;;;;20.73;66.78;101477.03;5055871;28;20452;-64
2021/06/05 06:25:03;;;;;;;2.60;2.20;;;;;;;20.81;66.46;101476.09;5055836;28;20442;-64
2021/06/05 06:27:33;;;;;;;3.70;2.30;;;;;;;20.91;66.23;101475.59;5055710;28;20446;-64
2021/06/05 06:29:59;;;;;;;6.57;2.53;;;;;;;20.99;65.83;101476.63;5055794;28;20431;-64
2021/06/05 06:32:25;;;;;;;1.87;1.77;;;;;;;21.10;63.28;101479.66;5055753;28;20443;-64
2021/06/05 06:34:51;;;;;;;2.30;1.70;;;;;;;21.18;63.49;101481.47;5055393;28;20442;-64
2021/06/05 06:37:18;;;;;;;2.20;2.00;;;;;;;21.27;63.89;101482.13;5049965;28;20451;-64
2021/06/05 06:39:44;;;;;;;2.40;2.20;;;;;;;21.32;63.60;101481.88;5035172;28;20517;-64
2021/06/05 06:42:11;;;;;;;2.00;1.80;;;;;;;21.38;63.02;101486.00;5035500;28;20487;-67
2021/06/05 06:44:37;;;;;;;3.33;2.17;;;;;;;21.46;61.75;101475.16;5035601;28;20454;-66
2021/06/05 06:47:06;;;;;;;2.70;1.83;;;;;;;21.58;59.82;101486.91;5035517;28;20912;-66
2021/06/05 06:49:32;;;;;;;9.77;1.90;;;;;;;21.59;59.84;101483.00;5035068;28;20574;-66
2021/06/05 06:51:58;;;;;;;2.47;2.27;;;;;;;21.62;60.28;101481.50;5035483;28;20818;-66
2021/06/05 06:54:25;;;;;;;1.90;1.70;;;;;;;21.68;59.97;101485.59;5035413;28;20447;-66
2021/06/05 06:56:52;;;;;;;2.53;2.07;;;;;;;21.76;60.57;101486.59;5035150;28;20435;-65
2021/06/05 06:59:17;;;;;;;2.00;1.80;;;;;;;21.87;59.88;101482.16;5035127;28;20466;-68
2021/06/05 07:01:44;;;;;;;2.33;1.80;;;;;;;22.00;59.94;101482.84;5034662;28;20518;-66
2021/06/05 07:04:10;;;;;;;3.30;2.10;;;;;;;22.06;59.13;101478.66;5035276;28;20450;-66
2021/06/05 07:06:37;;;;;;;2.23;1.80;;;;;;;22.07;58.26;101481.06;5035000;28;20443;-67
2021/06/05 07:09:05;;;;;;;3.50;1.60;;;;;;;22.14;58.67;101474.94;5034761;28;20980;-66
2021/06/05 07:11:35;;;;;;;2.20;2.00;;;;;;;22.22;58.82;101482.22;5035159;28;20436;-67
2021/06/05 07:14:04;;;;;;;2.10;1.63;;;;;;;22.29;58.80;101482.41;5035045;28;20450;-66
2021/06/05 07:16:33;;;;;;;3.00;2.03;;;;;;;22.32;58.94;101478.94;5034997;28;20446;-66
2021/06/05 07:18:59;;;;;;;2.97;2.27;;;;;;;22.33;59.25;101477.75;5034885;28;20459;-66
2021/06/05 07:21:25;;;;;;;3.83;2.33;;;;;;;22.31;59.13;101485.63;5034545;28;20483;-67
2021/06/05 07:23:51;;;;;;;5.30;2.30;;;;;;;22.32;59.52;101481.69;5046023;28;20466;-66
2021/06/05 07:26:21;;;;;;;3.97;2.43;;;;;;;22.38;59.30;101484.97;5054752;28;20442;-67
2021/06/05 07:28:50;;;;;;;2.77;2.47;;;;;;;22.38;59.56;101484.97;5054357;28;20995;-67
2021/06/05 07:31:19;;;;;;;2.40;2.20;;;;;;;22.41;59.65;101484.25;5054531;28;20435;-66
2021/06/05 07:33:47;;;;;;;2.50;1.67;;;;;;;22.46;59.03;101478.44;5054504;28;20442;-65
2021/06/05 07:36:17;;;;;;;2.77;1.93;;;;;;;22.58;59.26;101480.28;5054576;28;20434;-66
2021/06/05 07:38:43;;;;;;;3.40;2.77;;;;;;;22.64;57.03;101484.38;5054285;28;20474;-66
2021/06/05 07:41:09;;;;;;;4.77;1.97;;;;;;;22.74;58.36;101478.25;5054138;28;20509;-66
2021/06/05 07:43:36;;;;;;;2.70;2.40;;;;;;;22.81;57.54;101481.19;5054262;28;20446;-67
2021/06/05 07:46:03;;;;;;;2.57;2.00;;;;;;;22.90;56.25;101487.31;5054274;28;20439;-67
2021/06/05 07:48:30;;;;;;;3.90;1.90;;;;;;;22.98;57.02;101484.72;5053932;28;21010;-67
2021/06/05 07:50:58;;;;;;;4.80;2.67;;;;;;;22.97;57.02;101488.63;5054250;28;20441;-66
2021/06/05 07:53:24;;;;;;;3.00;2.13;;;;;;;23.04;55.98;101488.78;5054274;28;20545;-66
2021/06/05 07:55:51;;;;;;;5.93;1.80;;;;;;;23.14;56.03;101482.66;5054110;28;20440;-66
2021/06/05 07:58:17;;;;;;;2.20;1.73;;;;;;;23.17;55.80;101479.97;5054036;28;20459;-66
2021/06/05 08:00:43;;;;;;;3.80;2.20;;;;;;;23.27;54.71;101470.28;5054023;28;20492;-66
2021/06/05 08:03:11;;;;;;;2.63;1.80;;;;;;;23.42;55.26;101476.91;5054191;28;20446;-66
2021/06/05 08:05:38;;;;;;;2.23;2.00;;;;;;;23.44;55.06;101468.22;5054065;28;20442;-66
2021/06/05 08:08:06;;;;;;;3.03;2.10;;;;;;;23.41;55.08;101470.53;5053823;28;20458;-66
2021/06/05 08:10:33;;;;;;;3.50;1.83;;;;;;;23.50;54.58;101466.75;5053887;28;20434;-66
2021/06/05 08:12:59;;;;;;;1.63;1.53;;;;;;;23.59;53.01;101476.41;5053356;28;20477;-66
2021/06/05 08:15:28;;;;;;;1.73;1.60;;;;;;;23.70;53.58;101465.56;5053077;28;20943;-66
2021/06/05 08:17:54;;;;;;;4.37;2.23;;;;;;;23.74;53.42;101469.19;5047488;28;20482;-66
2021/06/05 08:20:26;;;;;;;2.10;1.83;;;;;;;23.75;53.10;101476.31;5033601;28;20448;-66
2021/06/05 08:22:52;;;;;;;1.87;1.47;;;;;;;23.86;52.46;101462.66;5033146;28;20438;-66
2021/06/05 08:25:18;;;;;;;2.17;1.77;;;;;;;24.00;53.00;101470.41;5032128;28;20447;-66
2021/06/05 08:27:44;;;;;;;2.40;2.10;;;;;;;24.10;52.42;101469.78;5033222;28;20493;-66
2021/06/05 08:30:18;;;;;;;2.23;1.90;;;;;;;24.12;53.15;101465.44;5033808;28;20443;-66
2021/06/05 08:32:44;;;;;;;3.30;2.03;;;;;;;24.22;53.07;101463.22;5033662;28;20446;-66
2021/06/05 08:35:10;;;;;;;2.17;1.87;;;;;;;24.35;53.29;101459.88;5033696;28;20940;-65
2021/06/05 08:37:38;;;;;;;1.70;1.60;;;;;;;24.43;51.58;101463.56;5033402;28;20965;-67
2021/06/05 08:40:05;;;;;;;2.53;2.00;;;;;;;24.49;51.00;101455.75;5033568;28;20447;-65
2021/06/05 08:42:38;;;;;;;2.83;2.20;;;;;;;24.57;50.84;101463.78;5033436;28;20537;-65
2021/06/05 08:45:06;;;;;;;1.93;1.47;;;;;;;24.67;51.22;101463.09;5033683;28;20431;-66
2021/06/05 08:47:35;;;;;;;2.37;1.70;;;;;;;24.80;50.82;101463.66;5033321;28;20443;-69
2021/06/05 08:50:04;;;;;;;2.03;1.70;;;;;;;24.84;50.13;101461.75;5033624;28;20438;-68
2021/06/05 08:52:35;;;;;;;2.10;1.90;;;;;;;24.87;49.28;101454.63;5033986;28;20443;-67
2021/06/05 08:55:10;;;;;;;2.37;1.90;;;;;;;25.00;49.08;101463.50;5033384;28;20427;-66
2021/06/05 08:57:39;;;;;;;2.30;1.80;;;;;;;24.98;49.93;101454.78;5032974;28;20872;-66
2021/06/05 09:00:12;;;;;;;2.07;1.90;;;;;;;25.11;49.26;101456.13;5033306;28;20447;-66
2021/06/05 09:02:40;;;;;;;2.30;1.70;;;;;;;25.17;47.97;101460.94;5034276;28;20427;-67
2021/06/05 09:05:11;;;;;;;1.80;1.67;;;;;;;25.19;49.07;101465.31;5052945;28;20446;-67
2021/06/05 09:07:38;;;;;;;2.47;1.90;;;;;;;25.29;48.24;101462.66;5053129;28;20429;-66
2021/06/05 09:10:07;;;;;;;2.30;1.87;;;;;;;25.27;49.29;101467.00;5053071;28;20453;-67
2021/06/05 09:12:33;;;;;;;3.57;1.97;;;;;;;25.36;48.05;101471.03;5031832;28;20964;-66
2021/06/05 09:15:00;;;;;;;2.17;1.83;;;;;;;25.36;48.24;101465.50;5031953;28;20462;-66
2021/06/05 09:17:36;;;;;;;2.17;1.80;;;;;;;25.49;49.28;101470.78;5027185;28;20444;-67
2021/06/05 09:20:07;;;;;;;2.73;2.40;;;;;;;25.60;49.14;101457.81;5032699;28;20810;-67
2021/06/05 09:22:37;;;;;;;2.17;1.97;;;;;;;25.66;49.50;101468.16;5033076;28;20486;-67
2021/06/05 09:25:30;;;;;;;4.43;2.50;;;;;;;25.76;48.47;101463.09;5032289;28;20447;-67
2021/06/05 09:28:26;;;;;;;1.70;1.60;;;;;;;25.75;48.61;101450.41;5017190;28;20463;-67
2021/06/05 09:30:56;;;;;;;2.27;1.80;;;;;;;25.89;48.46;101464.44;5014452;28;20448;-67
2021/06/05 09:33:32;;;;;;;2.07;1.87;;;;;;;26.01;47.62;101449.44;5017066;28;20518;-67
2021/06/05 09:36:23;;;;;;;1.90;1.70;;;;;;;26.11;47.22;101457.06;5016750;28;20466;-66
2021/06/05 09:38:53;;;;;;;2.07;1.90;;;;;;;26.04;48.13;101449.47;5017014;28;20797;-67
2021/06/05 09:41:28;;;;;;;1.70;1.60;;;;;;;26.00;48.02;101458.97;5016958;28;20483;-67
2021/06/05 09:44:10;;;;;;;4.20;2.17;;;;;;;25.97;47.73;101456.94;5016951;28;20474;-67
2021/06/05 09:46:56;;;;;;;2.50;1.90;;;;;;;25.96;47.94;101452.59;5016934;28;20425;-66
2021/06/05 09:49:29;;;;;;;2.40;2.10;;;;;;;25.95;47.17;101451.00;5016531;28;20482;-68
2021/06/05 09:52:06;;;;;;;2.37;1.60;;;;;;;25.98;47.89;101444.66;5016872;28;20431;-67
2021/06/05 09:54:35;;;;;;;2.63;2.20;;;;;;;25.95;46.75;101448.22;5016842;28;20486;-67
2021/06/05 09:57:23;;;;;;;2.30;1.90;;;;;;;25.95;48.23;101451.78;5016752;28;20439;-67
2021/06/05 10:00:00;;;;;;;2.13;1.93;;;;;;;25.83;48.22;101447.34;5016385;28;21016;-67
2021/06/05 10:02:27;;;;;;;1.83;1.67;;;;;;;25.83;48.95;101441.78;5016376;28;21007;-66
2021/06/05 10:05:07;;;;;;;1.97;1.80;;;;;;;25.85;47.95;101449.72;5016676;28;20448;-67
2021/06/05 10:07:33;;;;;;;2.60;1.90;;;;;;;25.92;48.17;101441.44;5016477;28;20442;-67
2021/06/05 10:10:01;;;;;;;1.63;1.50;;;;;;;26.01;47.91;101441.13;5016501;28;20444;-68
2021/06/05 10:12:29;;;;;;;3.03;2.17;;;;;;;25.98;48.19;101428.78;5016371;28;20440;-66
2021/06/05 10:15:00;;;;;;;2.33;1.90;;;;;;;26.10;48.93;101430.47;5016317;28;20472;-67
2021/06/05 10:17:39;;;;;;;2.40;2.20;;;;;;;26.12;46.29;101433.66;5016192;28;20424;-68
2021/06/05 10:20:16;;;;;;;3.23;2.50;;;;;;;26.14;47.08;101432.09;5016324;28;20482;-67
2021/06/05 10:22:43;;;;;;;1.80;1.70;;;;;;;26.26;47.06;101433.75;5015707;28;20479;-68
2021/06/05 10:25:24;;;;;;;2.47;2.27;;;;;;;26.31;45.51;101427.03;5016141;28;20459;-68
2021/06/05 10:27:53;;;;;;;2.50;2.13;;;;;;;26.32;46.61;101417.50;5015775;28;21051;-71
2021/06/05 10:30:30;;;;;;;3.03;2.50;;;;;;;26.45;48.03;101429.13;5015994;28;20443;-68
2021/06/05 10:32:58;;;;;;;2.90;1.93;;;;;;;26.54;46.29;101426.78;5016075;28;20439;-68
2021/06/05 10:35:29;;;;;;;2.13;1.93;;;;;;;26.62;46.86;101422.84;5015934;28;20442;-68
2021/06/05 10:38:02;;;;;;;4.60;2.70;;;;;;;26.61;45.65;101421.25;5015121;28;20468;-67
2021/06/05 10:40:28;;;;;;;3.40;2.60;;;;;;;26.57;44.67;101414.88;5022269;28;20452;-68
2021/06/05 10:42:55;;;;;;;2.53;2.20;;;;;;;26.66;46.31;101421.69;5048234;28;20486;-66
2021/06/05 10:45:28;;;;;;;3.00;2.40;;;;;;;26.75;44.83;101421.31;5035513;28;20443;-68
2021/06/05 10:50:28;;;;;;;3.07;2.30;;;;;;;26.81;45.04;101418.94;4994719;28;20492;-68
2021/06/05 10:52:58;;;;;;;2.63;2.23;;;;;;;26.91;45.43;101410.63;5012439;28;20449;-69
2021/06/05 10:55:31;;;;;;;2.33;2.13;;;;;;;27.09;46.72;101407.13;5016123;28;20463;-69
2021/06/05 10:58:22;;;;;;;4.40;2.37;;;;;;;27.29;43.83;101410.34;5022261;28;20444;-71
2021/06/05 11:00:51;;;;;;;1.73;1.60;;;;;;;27.48;43.82;101409.16;5006134;28;20479;-70
2021/06/05 11:03:50;;;;;;;3.07;2.17;;;;;;;27.75;44.58;101410.38;5009931;28;20440;-71
2021/06/05 11:06:19;;;;;;;3.47;2.77;;;;;;;27.80;43.71;101404.44;5002937;28;20710;-73
2021/06/05 11:08:51;;;;;;;2.63;2.43;;;;;;;28.08;43.44;101411.13;5007203;28;21116;-70
2021/06/05 11:11:40;;;;;;;3.00;2.13;;;;;;;28.21;43.19;101403.94;5000445;28;20433;-68
2021/06/05 11:14:41;;;;;;;2.27;2.03;;;;;;;28.68;42.14;101407.38;4994864;28;20430;-70
2021/06/05 11:17:26;;;;;;;2.40;2.13;;;;;;;29.42;42.20;101414.50;4995610;28;20432;-69
2021/06/05 11:19:55;;;;;;;2.03;1.77;;;;;;;30.40;40.73;101407.63;4995541;28;20554;-68
2021/06/05 11:22:23;;;;;;;2.23;1.93;;;;;;;31.31;39.46;101411.63;4995298;28;20531;-68
2021/06/05 11:25:22;;;;;;;2.23;2.00;;;;;;;32.11;37.24;101406.25;4994598;28;20962;-70
2021/06/05 11:27:52;;;;;;;4.20;2.20;;;;;;;33.10;35.73;101402.56;4994626;28;20449;-70
2021/06/05 11:30:37;;;;;;;1.87;1.77;;;;;;;34.05;34.45;101404.22;4994852;28;20471;-69
2021/06/05 11:33:08;;;;;;;2.13;1.80;;;;;;;34.39;32.98;101402.84;4994836;28;20595;-69
2021/06/05 11:35:49;;;;;;;2.70;1.53;;;;;;;34.72;32.78;101402.72;4994621;28;20977;-70